Detalii statie AGRICHIM STEFAN CEL MARE [0000198F]

Toti senzorii

Date Temperatura solului [C]Precipitatii [mm]Voltaj baterie [mV]HC Air temperature [C]HC Relative humidity [%]Punctul de roua [C]
medieminmaxsumaultimamedieminmaxmediemediemin
2019-06-15 18:00:00 24.9 24.7 25.2 0 7010 23.04 22.52 23.35 85.16 20.1 18.5
2019-06-15 19:00:00 24.7 24.5 24.9 0 6982 23.26 22.84 23.7 76.51 18.7 17.3
2019-06-15 20:00:00 24.5 24.3 24.7 0 6874 22.16 21.48 22.74 93.31 20.8 19.4
2019-06-15 21:00:00 24.2 24.1 24.3 0 6874 20.75 20.42 21.34 100 20.7 20.4
2019-06-15 22:00:00 23.9 23.7 24.3 0 6884 19.97 19.48 20.4 100 19.9 19.4
2019-06-15 23:00:00 23.6 23.5 23.8 0 6874 19.2 19.08 19.34 100 19.1 19
2019-06-16 00:00:00 23.4 23.3 23.6 0 6854 18.83 18.43 19.06 100 18.7 18.4
2019-06-16 01:00:00 23.1 23 23.3 0 6854 18.59 18.48 18.72 100 18.5 18.4
2019-06-16 02:00:00 22.9 22.9 23.2 0 6844 18.52 18.28 18.65 100 18.4 18.2
2019-06-16 03:00:00 22.6 22.4 22.8 0 6854 18.13 18.01 18.24 100 18.1 18
2019-06-16 04:00:00 22.4 22.2 22.6 0 6844 17.76 17.61 17.99 100 17.7 17.6
2019-06-16 05:00:00 22.3 22.2 22.6 0 6834 17.39 17.23 17.56 100 17.3 17.2
2019-06-16 06:00:00 22.1 21.9 22.3 0 6854 17.91 17.38 18.62 100 17.8 17.3
2019-06-16 07:00:00 22 21.9 22.1 0 6922 19.77 18.79 20.73 0 0 0
2019-06-16 08:00:00 21.8 21.8 22 0 6952 21.88 20.85 22.99 0 0 0
2019-06-16 09:00:00 21.8 21.8 21.9 0 7148 24.71 23.15 26.06 0 0 0
2019-06-16 10:00:00 21.9 21.8 22 0 7236 27.71 26.45 28.73 0 0 0
2019-06-16 11:00:00 22 22 22.1 0 7264 30.39 28.46 31.54 0 0 0
2019-06-16 12:00:00 22.3 22.1 22.6 0 7264 32.28 31.42 33.28 0 0 0
2019-06-16 13:00:00 23.1 22.7 23.7 0 7254 33.85 32.87 34.67 0 0 0
2019-06-16 14:00:00 23.9 23.7 24.4 0 7264 34.49 32.5 35.47 0 0 0
2019-06-16 15:00:00 24.7 24.4 25 0 7264 34.1 33.05 35.33 0 0 0
2019-06-16 16:00:00 25.2 25.1 25.5 0 7050 31.03 28.31 34.79 0 0 0
2019-06-16 17:00:00 25.3 25.2 25.5 0 7070 27.21 26.98 27.87 0 0 0
2019-06-16 18:00:00 25.1 25.1 25.4 0 7128 28.05 27.23 28.54 0 0 0
2019-06-16 19:00:00 24.9 24.8 25.2 0 7040 27.64 26.01 28.75 0 0 0
2019-06-16 20:00:00 24.7 24.5 25 0 6932 24.57 23.15 25.88 0 0 0
2019-06-16 21:00:00 24.4 24.3 24.6 0 6904 22.03 21.08 22.94 0 0 0
2019-06-16 22:00:00 24.1 24 24.4 0 6894 21.24 20.48 21.91 0 0 0
2019-06-16 23:00:00 23.7 23.6 24.1 0 6874 20.44 20.3 20.76 0 0 0
2019-06-17 00:00:00 23.4 23.1 23.6 0 6874 19.76 19.04 20.37 0 0 0
2019-06-17 01:00:00 23.2 23 23.4 0 6864 18.92 18.6 19.22 0.35 0
2019-06-17 02:00:00 22.9 22.8 23.2 0 6826 18.69 18.47 18.86 0.92 0
2019-06-17 03:00:00 22.6 22.6 22.8 0 6816 18.21 17.9 18.39 7.06 -9.4 0
2019-06-17 04:00:00 22.4 22.2 22.7 0 6834 18.26 18.13 18.32 6.31 -2 0
2019-06-17 05:00:00 22.2 22.1 22.4 0 6834 17.98 17.7 18.23 0 0 0
2019-06-17 06:00:00 22.1 22.1 22.3 0 6864 18.54 17.94 19.1 0 0 0
2019-06-17 07:00:00 21.9 21.8 22.1 0 6914 20.43 19.22 22.08 0 0 0
2019-06-17 08:00:00 21.9 21.8 22 0 6962 23.93 22.45 25.22 0 0 0
2019-06-17 09:00:00 21.8 21.8 22 0 7138 26.78 25.29 28.34 0 0 0
2019-06-17 10:00:00 21.9 21.8 22.1 0 7236 29.48 28.46 30.55 0 0 0
2019-06-17 11:00:00 22.1 22 22.3 0 7254 32.76 30.61 34.91 0 0 0
2019-06-17 12:00:00 22.4 22.1 22.8 0 7254 33.88 31.84 35.67 0 0 0
2019-06-17 13:00:00 23 22.7 23.4 0 7226 34.14 33.34 35.25 0 0 0
2019-06-17 14:00:00 23.8 23.6 24.4 0 7264 33.34 31.91 34.83 0 0 0
2019-06-17 15:00:00 24.3 24.1 24.6 0 7264 33.47 31.59 34.56 0 0 0